sensor_id;sensor_type;location;lat;lon;timestamp;P1;durP1;ratioP1;P2;durP2;ratioP2
11024;SDS011;22890;51.820;8.682;2023-05-29T00:02:19;6.83;;;2.80;;
11024;SDS011;22890;51.820;8.682;2023-05-29T00:04:46;9.37;;;2.97;;
11024;SDS011;22890;51.820;8.682;2023-05-29T00:07:13;5.27;;;2.27;;
11024;SDS011;22890;51.820;8.682;2023-05-29T00:09:40;5.43;;;2.73;;
11024;SDS011;22890;51.820;8.682;2023-05-29T00:12:07;6.23;;;2.57;;
11024;SDS011;22890;51.820;8.682;2023-05-29T00:14:35;3.33;;;2.43;;
11024;SDS011;22890;51.820;8.682;2023-05-29T00:17:02;7.00;;;2.43;;
11024;SDS011;22890;51.820;8.682;2023-05-29T00:19:29;6.50;;;2.83;;
11024;SDS011;22890;51.820;8.682;2023-05-29T00:21:57;4.00;;;2.37;;
11024;SDS011;22890;51.820;8.682;2023-05-29T00:24:24;6.83;;;2.57;;
11024;SDS011;22890;51.820;8.682;2023-05-29T00:26:51;12.90;;;3.50;;
11024;SDS011;22890;51.820;8.682;2023-05-29T00:29:18;4.63;;;2.90;;
11024;SDS011;22890;51.820;8.682;2023-05-29T00:31:48;5.33;;;2.93;;
11024;SDS011;22890;51.820;8.682;2023-05-29T00:34:15;11.50;;;3.10;;
11024;SDS011;22890;51.820;8.682;2023-05-29T00:36:43;8.83;;;2.60;;
11024;SDS011;22890;51.820;8.682;2023-05-29T00:39:11;7.80;;;3.53;;
11024;SDS011;22890;51.820;8.682;2023-05-29T00:41:38;6.90;;;2.63;;
11024;SDS011;22890;51.820;8.682;2023-05-29T00:44:05;4.90;;;2.90;;
11024;SDS011;22890;51.820;8.682;2023-05-29T00:46:33;8.90;;;2.90;;
11024;SDS011;22890;51.820;8.682;2023-05-29T00:49:00;11.70;;;2.70;;
11024;SDS011;22890;51.820;8.682;2023-05-29T00:51:27;10.50;;;3.43;;
11024;SDS011;22890;51.820;8.682;2023-05-29T00:53:55;9.70;;;3.17;;
11024;SDS011;22890;51.820;8.682;2023-05-29T00:56:24;12.43;;;3.13;;
11024;SDS011;22890;51.820;8.682;2023-05-29T00:58:52;8.90;;;3.00;;
11024;SDS011;22890;51.820;8.682;2023-05-29T01:01:19;16.63;;;4.17;;
11024;SDS011;22890;51.820;8.682;2023-05-29T01:03:47;5.17;;;3.10;;
11024;SDS011;22890;51.820;8.682;2023-05-29T01:06:15;9.57;;;2.63;;
11024;SDS011;22890;51.820;8.682;2023-05-29T01:08:43;12.93;;;3.87;;
11024;SDS011;22890;51.820;8.682;2023-05-29T01:14:00;5.70;;;2.57;;
11024;SDS011;22890;51.820;8.682;2023-05-29T01:16:38;8.67;;;2.87;;
11024;SDS011;22890;51.820;8.682;2023-05-29T01:19:33;7.17;;;2.47;;
11024;SDS011;22890;51.820;8.682;2023-05-29T01:22:34;7.33;;;3.40;;
11024;SDS011;22890;51.820;8.682;2023-05-29T01:25:10;12.13;;;3.03;;
11024;SDS011;22890;51.820;8.682;2023-05-29T01:27:44;5.67;;;2.50;;
11024;SDS011;22890;51.820;8.682;2023-05-29T01:30:14;11.63;;;2.33;;
11024;SDS011;22890;51.820;8.682;2023-05-29T01:32:41;8.70;;;2.97;;
11024;SDS011;22890;51.820;8.682;2023-05-29T01:35:13;6.50;;;2.33;;
11024;SDS011;22890;51.820;8.682;2023-05-29T01:37:40;8.63;;;3.30;;
11024;SDS011;22890;51.820;8.682;2023-05-29T01:40:07;9.60;;;3.53;;
11024;SDS011;22890;51.820;8.682;2023-05-29T01:42:35;6.57;;;2.30;;
11024;SDS011;22890;51.820;8.682;2023-05-29T01:45:02;8.00;;;2.17;;
11024;SDS011;22890;51.820;8.682;2023-05-29T01:47:32;14.73;;;2.73;;
11024;SDS011;22890;51.820;8.682;2023-05-29T01:50:00;13.57;;;2.63;;
11024;SDS011;22890;51.820;8.682;2023-05-29T01:52:31;11.70;;;2.60;;
11024;SDS011;22890;51.820;8.682;2023-05-29T01:54:57;8.77;;;2.20;;
11024;SDS011;22890;51.820;8.682;2023-05-29T01:57:25;10.60;;;3.00;;
11024;SDS011;22890;51.820;8.682;2023-05-29T01:59:52;8.30;;;2.57;;
11024;SDS011;22890;51.820;8.682;2023-05-29T02:02:21;15.13;;;3.07;;
11024;SDS011;22890;51.820;8.682;2023-05-29T02:04:51;9.97;;;2.23;;
11024;SDS011;22890;51.820;8.682;2023-05-29T02:07:19;9.10;;;2.57;;
11024;SDS011;22890;51.820;8.682;2023-05-29T02:09:46;6.50;;;2.33;;
11024;SDS011;22890;51.820;8.682;2023-05-29T02:12:13;6.93;;;2.43;;
11024;SDS011;22890;51.820;8.682;2023-05-29T02:14:41;8.93;;;2.53;;
11024;SDS011;22890;51.820;8.682;2023-05-29T02:17:09;8.53;;;2.97;;
11024;SDS011;22890;51.820;8.682;2023-05-29T02:19:37;8.30;;;2.70;;
11024;SDS011;22890;51.820;8.682;2023-05-29T02:22:04;8.83;;;2.43;;
11024;SDS011;22890;51.820;8.682;2023-05-29T02:24:33;10.47;;;2.60;;
11024;SDS011;22890;51.820;8.682;2023-05-29T02:27:00;9.53;;;2.87;;
11024;SDS011;22890;51.820;8.682;2023-05-29T02:29:29;6.17;;;2.10;;
11024;SDS011;22890;51.820;8.682;2023-05-29T02:31:56;7.03;;;2.60;;
11024;SDS011;22890;51.820;8.682;2023-05-29T02:34:23;6.23;;;2.33;;
11024;SDS011;22890;51.820;8.682;2023-05-29T02:36:50;8.97;;;2.40;;
11024;SDS011;22890;51.820;8.682;2023-05-29T02:39:18;9.10;;;3.10;;
11024;SDS011;22890;51.820;8.682;2023-05-29T02:41:46;5.10;;;1.87;;
11024;SDS011;22890;51.820;8.682;2023-05-29T02:44:13;7.43;;;2.53;;
11024;SDS011;22890;51.820;8.682;2023-05-29T02:46:40;7.00;;;2.33;;
11024;SDS011;22890;51.820;8.682;2023-05-29T02:49:07;9.63;;;2.87;;
11024;SDS011;22890;51.820;8.682;2023-05-29T02:51:34;6.70;;;1.90;;
11024;SDS011;22890;51.820;8.682;2023-05-29T02:54:02;6.47;;;2.33;;
11024;SDS011;22890;51.820;8.682;2023-05-29T02:56:29;6.00;;;2.07;;
11024;SDS011;22890;51.820;8.682;2023-05-29T02:58:56;6.70;;;2.63;;
11024;SDS011;22890;51.820;8.682;2023-05-29T03:01:23;15.03;;;3.00;;
11024;SDS011;22890;51.820;8.682;2023-05-29T03:03:51;12.23;;;3.47;;
11024;SDS011;22890;51.820;8.682;2023-05-29T03:06:19;7.70;;;3.10;;
11024;SDS011;22890;51.820;8.682;2023-05-29T03:08:46;5.80;;;2.70;;
11024;SDS011;22890;51.820;8.682;2023-05-29T03:11:14;11.97;;;2.50;;
11024;SDS011;22890;51.820;8.682;2023-05-29T03:13:42;5.50;;;2.03;;
11024;SDS011;22890;51.820;8.682;2023-05-29T03:16:09;5.37;;;2.40;;
11024;SDS011;22890;51.820;8.682;2023-05-29T03:18:38;7.53;;;2.67;;
11024;SDS011;22890;51.820;8.682;2023-05-29T03:21:06;8.73;;;2.20;;
11024;SDS011;22890;51.820;8.682;2023-05-29T03:23:34;9.67;;;2.23;;
11024;SDS011;22890;51.820;8.682;2023-05-29T03:26:01;7.20;;;2.37;;
11024;SDS011;22890;51.820;8.682;2023-05-29T03:28:31;7.57;;;2.30;;
11024;SDS011;22890;51.820;8.682;2023-05-29T03:31:01;8.93;;;2.27;;
11024;SDS011;22890;51.820;8.682;2023-05-29T03:33:28;9.17;;;2.67;;
11024;SDS011;22890;51.820;8.682;2023-05-29T03:36:06;7.30;;;2.30;;
11024;SDS011;22890;51.820;8.682;2023-05-29T03:38:34;8.33;;;2.40;;
11024;SDS011;22890;51.820;8.682;2023-05-29T03:41:02;4.73;;;2.33;;
11024;SDS011;22890;51.820;8.682;2023-05-29T03:43:29;6.43;;;1.90;;
11024;SDS011;22890;51.820;8.682;2023-05-29T03:45:56;5.47;;;2.17;;
11024;SDS011;22890;51.820;8.682;2023-05-29T03:48:26;7.47;;;2.30;;
11024;SDS011;22890;51.820;8.682;2023-05-29T03:50:54;8.23;;;2.53;;
11024;SDS011;22890;51.820;8.682;2023-05-29T03:53:27;3.73;;;2.40;;
11024;SDS011;22890;51.820;8.682;2023-05-29T03:55:56;8.13;;;2.33;;
11024;SDS011;22890;51.820;8.682;2023-05-29T03:58:23;4.30;;;2.30;;
11024;SDS011;22890;51.820;8.682;2023-05-29T04:00:51;7.87;;;2.17;;
11024;SDS011;22890;51.820;8.682;2023-05-29T04:03:19;10.20;;;2.90;;
11024;SDS011;22890;51.820;8.682;2023-05-29T04:05:48;7.90;;;2.67;;
11024;SDS011;22890;51.820;8.682;2023-05-29T04:08:15;10.73;;;3.23;;
11024;SDS011;22890;51.820;8.682;2023-05-29T04:10:42;7.83;;;2.37;;
11024;SDS011;22890;51.820;8.682;2023-05-29T04:13:10;8.20;;;2.63;;
11024;SDS011;22890;51.820;8.682;2023-05-29T04:15:37;11.43;;;2.53;;
11024;SDS011;22890;51.820;8.682;2023-05-29T04:18:05;7.07;;;2.03;;
11024;SDS011;22890;51.820;8.682;2023-05-29T04:20:32;7.20;;;2.13;;
11024;SDS011;22890;51.820;8.682;2023-05-29T04:23:00;12.50;;;3.10;;
11024;SDS011;22890;51.820;8.682;2023-05-29T04:25:27;8.13;;;2.40;;
11024;SDS011;22890;51.820;8.682;2023-05-29T04:27:54;7.10;;;2.43;;
11024;SDS011;22890;51.820;8.682;2023-05-29T04:30:22;8.77;;;2.40;;
11024;SDS011;22890;51.820;8.682;2023-05-29T04:32:49;10.63;;;2.73;;
11024;SDS011;22890;51.820;8.682;2023-05-29T04:35:19;9.63;;;2.90;;
11024;SDS011;22890;51.820;8.682;2023-05-29T04:38:00;7.77;;;2.53;;
11024;SDS011;22890;51.820;8.682;2023-05-29T04:40:30;9.07;;;2.20;;
11024;SDS011;22890;51.820;8.682;2023-05-29T04:43:03;5.80;;;2.40;;
11024;SDS011;22890;51.820;8.682;2023-05-29T04:45:52;11.07;;;2.47;;
11024;SDS011;22890;51.820;8.682;2023-05-29T04:48:19;8.77;;;2.40;;
11024;SDS011;22890;51.820;8.682;2023-05-29T04:50:47;5.43;;;1.97;;
11024;SDS011;22890;51.820;8.682;2023-05-29T04:53:14;5.77;;;2.37;;
11024;SDS011;22890;51.820;8.682;2023-05-29T04:55:42;9.20;;;2.10;;
11024;SDS011;22890;51.820;8.682;2023-05-29T04:58:10;11.00;;;2.53;;
11024;SDS011;22890;51.820;8.682;2023-05-29T05:00:39;11.53;;;2.70;;
11024;SDS011;22890;51.820;8.682;2023-05-29T05:03:06;11.57;;;2.27;;
11024;SDS011;22890;51.820;8.682;2023-05-29T05:05:36;8.67;;;2.57;;
11024;SDS011;22890;51.820;8.682;2023-05-29T05:08:03;8.77;;;2.17;;
11024;SDS011;22890;51.820;8.682;2023-05-29T05:10:31;6.90;;;2.57;;
11024;SDS011;22890;51.820;8.682;2023-05-29T05:12:58;7.30;;;2.60;;
11024;SDS011;22890;51.820;8.682;2023-05-29T05:15:26;6.83;;;2.23;;
11024;SDS011;22890;51.820;8.682;2023-05-29T05:17:53;6.97;;;2.57;;
11024;SDS011;22890;51.820;8.682;2023-05-29T05:20:20;9.57;;;2.70;;
11024;SDS011;22890;51.820;8.682;2023-05-29T05:22:54;8.90;;;2.60;;
11024;SDS011;22890;51.820;8.682;2023-05-29T05:25:22;8.07;;;2.93;;
11024;SDS011;22890;51.820;8.682;2023-05-29T05:27:49;11.80;;;2.83;;
11024;SDS011;22890;51.820;8.682;2023-05-29T05:30:18;8.53;;;2.57;;
11024;SDS011;22890;51.820;8.682;2023-05-29T05:32:46;9.57;;;2.97;;
11024;SDS011;22890;51.820;8.682;2023-05-29T05:35:14;10.87;;;2.67;;
11024;SDS011;22890;51.820;8.682;2023-05-29T05:37:42;10.17;;;3.17;;
11024;SDS011;22890;51.820;8.682;2023-05-29T05:40:10;8.90;;;2.60;;
11024;SDS011;22890;51.820;8.682;2023-05-29T05:42:48;8.67;;;2.43;;
11024;SDS011;22890;51.820;8.682;2023-05-29T05:45:18;9.70;;;2.47;;
11024;SDS011;22890;51.820;8.682;2023-05-29T05:47:47;16.67;;;3.27;;
11024;SDS011;22890;51.820;8.682;2023-05-29T05:50:14;8.57;;;2.80;;
11024;SDS011;22890;51.820;8.682;2023-05-29T05:52:43;13.30;;;2.70;;
11024;SDS011;22890;51.820;8.682;2023-05-29T05:55:11;8.80;;;2.50;;
11024;SDS011;22890;51.820;8.682;2023-05-29T05:57:38;5.30;;;2.30;;
11024;SDS011;22890;51.820;8.682;2023-05-29T06:00:06;10.10;;;3.07;;
11024;SDS011;22890;51.820;8.682;2023-05-29T06:02:42;9.40;;;2.70;;
11024;SDS011;22890;51.820;8.682;2023-05-29T06:05:19;7.03;;;2.00;;
11024;SDS011;22890;51.820;8.682;2023-05-29T06:07:46;8.93;;;2.83;;
11024;SDS011;22890;51.820;8.682;2023-05-29T06:10:14;6.57;;;2.90;;
11024;SDS011;22890;51.820;8.682;2023-05-29T06:12:41;7.07;;;2.03;;
11024;SDS011;22890;51.820;8.682;2023-05-29T06:15:18;9.43;;;3.23;;
11024;SDS011;22890;51.820;8.682;2023-05-29T06:17:45;11.47;;;2.67;;
11024;SDS011;22890;51.820;8.682;2023-05-29T06:20:14;7.93;;;2.97;;
11024;SDS011;22890;51.820;8.682;2023-05-29T06:22:42;5.33;;;2.10;;
11024;SDS011;22890;51.820;8.682;2023-05-29T06:25:09;8.23;;;2.37;;
11024;SDS011;22890;51.820;8.682;2023-05-29T06:27:37;5.77;;;2.80;;
11024;SDS011;22890;51.820;8.682;2023-05-29T06:30:06;8.40;;;2.47;;
11024;SDS011;22890;51.820;8.682;2023-05-29T06:32:34;9.57;;;2.40;;
11024;SDS011;22890;51.820;8.682;2023-05-29T06:35:01;7.00;;;2.37;;
11024;SDS011;22890;51.820;8.682;2023-05-29T06:37:28;6.33;;;2.57;;
11024;SDS011;22890;51.820;8.682;2023-05-29T06:39:55;9.27;;;2.87;;
11024;SDS011;22890;51.820;8.682;2023-05-29T06:42:23;4.77;;;2.10;;
11024;SDS011;22890;51.820;8.682;2023-05-29T06:44:56;5.37;;;2.33;;
11024;SDS011;22890;51.820;8.682;2023-05-29T06:47:24;6.37;;;2.20;;
11024;SDS011;22890;51.820;8.682;2023-05-29T06:49:51;8.50;;;2.33;;
11024;SDS011;22890;51.820;8.682;2023-05-29T06:52:18;8.40;;;2.80;;
11024;SDS011;22890;51.820;8.682;2023-05-29T06:55:08;5.20;;;2.20;;
11024;SDS011;22890;51.820;8.682;2023-05-29T06:57:36;7.27;;;3.13;;
11024;SDS011;22890;51.820;8.682;2023-05-29T07:00:04;8.70;;;2.40;;
11024;SDS011;22890;51.820;8.682;2023-05-29T07:02:34;9.27;;;2.80;;
11024;SDS011;22890;51.820;8.682;2023-05-29T07:05:01;5.73;;;2.37;;
11024;SDS011;22890;51.820;8.682;2023-05-29T07:07:29;4.83;;;2.33;;
11024;SDS011;22890;51.820;8.682;2023-05-29T07:09:57;8.07;;;2.70;;
11024;SDS011;22890;51.820;8.682;2023-05-29T07:12:24;7.37;;;2.77;;
11024;SDS011;22890;51.820;8.682;2023-05-29T07:14:51;10.90;;;2.87;;
11024;SDS011;22890;51.820;8.682;2023-05-29T07:17:18;9.00;;;2.27;;
11024;SDS011;22890;51.820;8.682;2023-05-29T07:19:53;7.37;;;2.17;;
11024;SDS011;22890;51.820;8.682;2023-05-29T07:22:21;11.73;;;2.70;;
11024;SDS011;22890;51.820;8.682;2023-05-29T07:24:48;7.57;;;2.53;;
11024;SDS011;22890;51.820;8.682;2023-05-29T07:27:15;7.43;;;2.30;;
11024;SDS011;22890;51.820;8.682;2023-05-29T07:29:42;9.07;;;2.60;;
11024;SDS011;22890;51.820;8.682;2023-05-29T07:32:09;9.63;;;3.13;;
11024;SDS011;22890;51.820;8.682;2023-05-29T07:34:37;6.47;;;2.23;;
11024;SDS011;22890;51.820;8.682;2023-05-29T07:37:05;8.93;;;2.70;;
11024;SDS011;22890;51.820;8.682;2023-05-29T07:39:34;8.77;;;2.53;;
11024;SDS011;22890;51.820;8.682;2023-05-29T07:42:11;6.33;;;2.60;;
11024;SDS011;22890;51.820;8.682;2023-05-29T07:44:41;9.87;;;2.97;;
11024;SDS011;22890;51.820;8.682;2023-05-29T07:47:09;5.50;;;2.57;;
11024;SDS011;22890;51.820;8.682;2023-05-29T07:49:40;11.70;;;2.30;;
11024;SDS011;22890;51.820;8.682;2023-05-29T07:52:08;9.23;;;2.27;;
11024;SDS011;22890;51.820;8.682;2023-05-29T07:54:35;8.77;;;2.00;;
11024;SDS011;22890;51.820;8.682;2023-05-29T07:57:04;11.87;;;3.17;;
11024;SDS011;22890;51.820;8.682;2023-05-29T07:59:37;7.10;;;2.40;;
11024;SDS011;22890;51.820;8.682;2023-05-29T08:02:07;9.07;;;3.13;;
11024;SDS011;22890;51.820;8.682;2023-05-29T08:04:54;11.37;;;3.10;;
11024;SDS011;22890;51.820;8.682;2023-05-29T08:07:23;10.20;;;2.20;;
11024;SDS011;22890;51.820;8.682;2023-05-29T08:09:51;5.93;;;2.40;;
11024;SDS011;22890;51.820;8.682;2023-05-29T08:12:18;9.87;;;2.33;;
11024;SDS011;22890;51.820;8.682;2023-05-29T08:14:46;8.17;;;2.10;;
11024;SDS011;22890;51.820;8.682;2023-05-29T08:17:13;8.57;;;2.13;;
11024;SDS011;22890;51.820;8.682;2023-05-29T08:19:43;5.67;;;1.97;;
11024;SDS011;22890;51.820;8.682;2023-05-29T08:22:12;9.10;;;2.83;;
11024;SDS011;22890;51.820;8.682;2023-05-29T08:24:40;9.03;;;2.70;;
11024;SDS011;22890;51.820;8.682;2023-05-29T08:27:07;10.33;;;3.20;;
11024;SDS011;22890;51.820;8.682;2023-05-29T08:29:34;7.07;;;2.20;;
11024;SDS011;22890;51.820;8.682;2023-05-29T08:32:03;6.37;;;2.27;;
11024;SDS011;22890;51.820;8.682;2023-05-29T08:34:30;5.83;;;2.23;;
11024;SDS011;22890;51.820;8.682;2023-05-29T08:36:57;6.67;;;2.20;;
11024;SDS011;22890;51.820;8.682;2023-05-29T08:39:24;13.90;;;3.33;;
11024;SDS011;22890;51.820;8.682;2023-05-29T08:44:31;10.40;;;2.30;;
11024;SDS011;22890;51.820;8.682;2023-05-29T08:47:00;13.57;;;3.23;;
11024;SDS011;22890;51.820;8.682;2023-05-29T08:49:34;6.50;;;2.30;;
11024;SDS011;22890;51.820;8.682;2023-05-29T08:52:15;7.87;;;2.37;;
11024;SDS011;22890;51.820;8.682;2023-05-29T08:54:43;5.90;;;1.70;;
11024;SDS011;22890;51.820;8.682;2023-05-29T08:57:10;7.10;;;2.73;;
11024;SDS011;22890;51.820;8.682;2023-05-29T08:59:39;7.47;;;2.20;;
11024;SDS011;22890;51.820;8.682;2023-05-29T09:02:09;11.50;;;2.20;;
11024;SDS011;22890;51.820;8.682;2023-05-29T09:04:38;7.73;;;2.27;;
11024;SDS011;22890;51.820;8.682;2023-05-29T09:07:05;7.23;;;2.20;;
11024;SDS011;22890;51.820;8.682;2023-05-29T09:09:35;11.73;;;2.37;;
11024;SDS011;22890;51.820;8.682;2023-05-29T09:12:03;6.87;;;2.23;;
11024;SDS011;22890;51.820;8.682;2023-05-29T09:17:11;8.73;;;2.30;;
11024;SDS011;22890;51.820;8.682;2023-05-29T09:19:38;7.23;;;2.30;;
11024;SDS011;22890;51.820;8.682;2023-05-29T09:22:07;5.33;;;2.00;;
11024;SDS011;22890;51.820;8.682;2023-05-29T09:24:42;7.07;;;2.47;;
11024;SDS011;22890;51.820;8.682;2023-05-29T09:27:12;10.17;;;2.67;;
11024;SDS011;22890;51.820;8.682;2023-05-29T09:29:42;9.10;;;2.23;;
11024;SDS011;22890;51.820;8.682;2023-05-29T09:32:11;8.93;;;2.50;;
11024;SDS011;22890;51.820;8.682;2023-05-29T09:34:42;6.93;;;2.20;;
11024;SDS011;22890;51.820;8.682;2023-05-29T09:37:10;6.73;;;2.20;;
11024;SDS011;22890;51.820;8.682;2023-05-29T09:42:11;8.60;;;2.53;;
11024;SDS011;22890;51.820;8.682;2023-05-29T09:44:41;9.17;;;2.60;;
11024;SDS011;22890;51.820;8.682;2023-05-29T09:47:13;11.97;;;2.63;;
11024;SDS011;22890;51.820;8.682;2023-05-29T09:49:44;5.17;;;2.00;;
11024;SDS011;22890;51.820;8.682;2023-05-29T09:52:12;10.37;;;2.47;;
11024;SDS011;22890;51.820;8.682;2023-05-29T09:54:43;7.40;;;2.47;;
11024;SDS011;22890;51.820;8.682;2023-05-29T09:57:17;9.27;;;2.27;;
11024;SDS011;22890;51.820;8.682;2023-05-29T09:59:44;7.20;;;2.00;;
11024;SDS011;22890;51.820;8.682;2023-05-29T10:02:13;11.03;;;2.80;;
11024;SDS011;22890;51.820;8.682;2023-05-29T10:04:41;8.03;;;2.43;;
11024;SDS011;22890;51.820;8.682;2023-05-29T10:07:12;11.47;;;2.67;;
11024;SDS011;22890;51.820;8.682;2023-05-29T10:09:43;12.23;;;3.00;;
11024;SDS011;22890;51.820;8.682;2023-05-29T10:12:11;7.57;;;2.60;;
11024;SDS011;22890;51.820;8.682;2023-05-29T10:14:39;7.90;;;2.90;;
11024;SDS011;22890;51.820;8.682;2023-05-29T10:17:08;8.10;;;2.27;;
11024;SDS011;22890;51.820;8.682;2023-05-29T10:19:38;5.63;;;2.60;;
11024;SDS011;22890;51.820;8.682;2023-05-29T10:22:05;9.40;;;2.40;;
11024;SDS011;22890;51.820;8.682;2023-05-29T10:24:33;9.70;;;2.50;;
11024;SDS011;22890;51.820;8.682;2023-05-29T10:27:03;8.50;;;2.27;;
11024;SDS011;22890;51.820;8.682;2023-05-29T10:29:35;8.30;;;2.60;;
11024;SDS011;22890;51.820;8.682;2023-05-29T10:34:52;6.30;;;2.40;;
11024;SDS011;22890;51.820;8.682;2023-05-29T10:37:34;11.63;;;2.60;;
11024;SDS011;22890;51.820;8.682;2023-05-29T10:40:16;7.20;;;2.30;;
11024;SDS011;22890;51.820;8.682;2023-05-29T10:42:50;4.80;;;2.40;;
11024;SDS011;22890;51.820;8.682;2023-05-29T10:50:35;5.60;;;2.20;;
11024;SDS011;22890;51.820;8.682;2023-05-29T10:53:02;5.73;;;2.37;;
11024;SDS011;22890;51.820;8.682;2023-05-29T10:55:39;5.93;;;2.20;;
11024;SDS011;22890;51.820;8.682;2023-05-29T10:58:13;9.57;;;2.30;;
11024;SDS011;22890;51.820;8.682;2023-05-29T11:00:51;8.10;;;2.03;;
11024;SDS011;22890;51.820;8.682;2023-05-29T11:03:33;7.63;;;2.43;;
11024;SDS011;22890;51.820;8.682;2023-05-29T11:06:01;5.97;;;2.37;;
11024;SDS011;22890;51.820;8.682;2023-05-29T11:08:47;6.53;;;2.57;;
11024;SDS011;22890;51.820;8.682;2023-05-29T11:13:57;7.30;;;2.73;;
11024;SDS011;22890;51.820;8.682;2023-05-29T11:18:59;5.30;;;2.50;;
11024;SDS011;22890;51.820;8.682;2023-05-29T11:23:58;5.73;;;2.20;;
11024;SDS011;22890;51.820;8.682;2023-05-29T11:26:33;7.87;;;2.20;;
11024;SDS011;22890;51.820;8.682;2023-05-29T11:29:02;4.47;;;2.07;;
11024;SDS011;22890;51.820;8.682;2023-05-29T11:31:32;3.97;;;2.13;;
11024;SDS011;22890;51.820;8.682;2023-05-29T11:34:02;10.13;;;2.83;;
11024;SDS011;22890;51.820;8.682;2023-05-29T11:36:34;8.63;;;2.50;;
11024;SDS011;22890;51.820;8.682;2023-05-29T11:39:00;4.80;;;1.90;;
11024;SDS011;22890;51.820;8.682;2023-05-29T11:41:29;5.40;;;2.57;;
11024;SDS011;22890;51.820;8.682;2023-05-29T11:46:24;5.23;;;2.20;;
11024;SDS011;22890;51.820;8.682;2023-05-29T11:48:52;9.37;;;2.00;;
11024;SDS011;22890;51.820;8.682;2023-05-29T11:51:19;6.50;;;2.07;;
11024;SDS011;22890;51.820;8.682;2023-05-29T11:53:47;8.37;;;2.93;;
11024;SDS011;22890;51.820;8.682;2023-05-29T11:56:14;6.70;;;1.90;;
11024;SDS011;22890;51.820;8.682;2023-05-29T11:58:42;4.00;;;2.10;;
11024;SDS011;22890;51.820;8.682;2023-05-29T12:01:09;4.60;;;2.43;;
11024;SDS011;22890;51.820;8.682;2023-05-29T12:03:37;4.33;;;2.30;;
11024;SDS011;22890;51.820;8.682;2023-05-29T12:06:11;3.17;;;1.70;;
11024;SDS011;22890;51.820;8.682;2023-05-29T12:08:38;5.33;;;1.83;;
11024;SDS011;22890;51.820;8.682;2023-05-29T12:11:05;5.37;;;2.37;;
11024;SDS011;22890;51.820;8.682;2023-05-29T12:13:33;5.00;;;1.50;;
11024;SDS011;22890;51.820;8.682;2023-05-29T12:16:01;5.50;;;1.83;;
11024;SDS011;22890;51.820;8.682;2023-05-29T12:18:30;3.57;;;1.80;;
11024;SDS011;22890;51.820;8.682;2023-05-29T12:20:58;5.40;;;2.53;;
11024;SDS011;22890;51.820;8.682;2023-05-29T12:23:28;5.10;;;1.90;;
11024;SDS011;22890;51.820;8.682;2023-05-29T12:25:56;7.50;;;1.90;;
11024;SDS011;22890;51.820;8.682;2023-05-29T12:28:25;6.37;;;2.00;;
11024;SDS011;22890;51.820;8.682;2023-05-29T12:30:57;4.77;;;2.27;;
11024;SDS011;22890;51.820;8.682;2023-05-29T12:33:30;4.53;;;1.90;;
11024;SDS011;22890;51.820;8.682;2023-05-29T12:36:05;8.33;;;2.30;;
11024;SDS011;22890;51.820;8.682;2023-05-29T12:38:46;6.60;;;2.27;;
11024;SDS011;22890;51.820;8.682;2023-05-29T12:41:29;6.43;;;2.13;;
11024;SDS011;22890;51.820;8.682;2023-05-29T12:44:01;5.80;;;2.53;;
11024;SDS011;22890;51.820;8.682;2023-05-29T12:46:34;8.33;;;2.43;;
11024;SDS011;22890;51.820;8.682;2023-05-29T12:49:13;6.50;;;2.43;;
11024;SDS011;22890;51.820;8.682;2023-05-29T12:51:41;8.13;;;2.30;;
11024;SDS011;22890;51.820;8.682;2023-05-29T12:54:10;3.40;;;2.07;;
11024;SDS011;22890;51.820;8.682;2023-05-29T12:56:38;5.20;;;2.50;;
11024;SDS011;22890;51.820;8.682;2023-05-29T12:59:06;7.33;;;2.57;;
11024;SDS011;22890;51.820;8.682;2023-05-29T13:01:37;6.73;;;1.90;;
11024;SDS011;22890;51.820;8.682;2023-05-29T13:04:05;9.53;;;2.40;;
11024;SDS011;22890;51.820;8.682;2023-05-29T13:06:37;5.00;;;2.60;;
11024;SDS011;22890;51.820;8.682;2023-05-29T13:09:04;6.70;;;2.30;;
11024;SDS011;22890;51.820;8.682;2023-05-29T13:11:32;8.97;;;3.13;;
11024;SDS011;22890;51.820;8.682;2023-05-29T13:14:02;4.77;;;2.27;;
11024;SDS011;22890;51.820;8.682;2023-05-29T13:16:29;4.23;;;2.07;;
11024;SDS011;22890;51.820;8.682;2023-05-29T13:18:57;6.53;;;2.10;;
11024;SDS011;22890;51.820;8.682;2023-05-29T13:21:24;7.47;;;2.77;;
11024;SDS011;22890;51.820;8.682;2023-05-29T13:23:51;5.80;;;2.67;;
11024;SDS011;22890;51.820;8.682;2023-05-29T13:26:18;9.33;;;2.03;;
11024;SDS011;22890;51.820;8.682;2023-05-29T13:28:45;5.37;;;2.33;;
11024;SDS011;22890;51.820;8.682;2023-05-29T13:31:12;4.30;;;2.10;;
11024;SDS011;22890;51.820;8.682;2023-05-29T13:33:39;4.93;;;1.83;;
11024;SDS011;22890;51.820;8.682;2023-05-29T13:36:07;7.07;;;2.70;;
11024;SDS011;22890;51.820;8.682;2023-05-29T13:38:34;7.03;;;2.30;;
11024;SDS011;22890;51.820;8.682;2023-05-29T13:41:01;4.70;;;2.20;;
11024;SDS011;22890;51.820;8.682;2023-05-29T13:43:28;9.27;;;2.50;;
11024;SDS011;22890;51.820;8.682;2023-05-29T13:46:08;4.87;;;2.30;;
11024;SDS011;22890;51.820;8.682;2023-05-29T13:48:36;7.27;;;2.83;;
11024;SDS011;22890;51.820;8.682;2023-05-29T13:51:03;5.53;;;2.03;;
11024;SDS011;22890;51.820;8.682;2023-05-29T13:53:30;7.17;;;2.23;;
11024;SDS011;22890;51.820;8.682;2023-05-29T13:55:57;5.17;;;1.90;;
11024;SDS011;22890;51.820;8.682;2023-05-29T13:58:24;9.43;;;2.50;;
11024;SDS011;22890;51.820;8.682;2023-05-29T14:00:51;4.07;;;2.13;;
11024;SDS011;22890;51.820;8.682;2023-05-29T14:03:18;7.67;;;2.90;;
11024;SDS011;22890;51.820;8.682;2023-05-29T14:05:48;5.90;;;3.50;;
11024;SDS011;22890;51.820;8.682;2023-05-29T14:08:15;8.30;;;2.10;;
11024;SDS011;22890;51.820;8.682;2023-05-29T14:10:42;8.23;;;3.23;;
11024;SDS011;22890;51.820;8.682;2023-05-29T14:13:10;5.13;;;2.33;;
11024;SDS011;22890;51.820;8.682;2023-05-29T14:15:37;4.67;;;3.00;;
11024;SDS011;22890;51.820;8.682;2023-05-29T14:18:06;5.90;;;2.37;;
11024;SDS011;22890;51.820;8.682;2023-05-29T14:20:34;6.27;;;2.53;;
11024;SDS011;22890;51.820;8.682;2023-05-29T14:23:02;5.73;;;2.13;;
11024;SDS011;22890;51.820;8.682;2023-05-29T14:25:29;5.80;;;2.03;;
11024;SDS011;22890;51.820;8.682;2023-05-29T14:27:56;7.00;;;2.60;;
11024;SDS011;22890;51.820;8.682;2023-05-29T14:30:23;7.33;;;2.97;;
11024;SDS011;22890;51.820;8.682;2023-05-29T14:32:50;8.00;;;2.57;;
11024;SDS011;22890;51.820;8.682;2023-05-29T14:35:18;5.50;;;2.30;;
11024;SDS011;22890;51.820;8.682;2023-05-29T14:37:45;10.17;;;2.50;;
11024;SDS011;22890;51.820;8.682;2023-05-29T14:40:12;3.80;;;2.30;;
11024;SDS011;22890;51.820;8.682;2023-05-29T14:42:39;6.43;;;2.30;;
11024;SDS011;22890;51.820;8.682;2023-05-29T14:45:07;6.63;;;2.87;;
11024;SDS011;22890;51.820;8.682;2023-05-29T14:47:35;9.77;;;3.30;;
11024;SDS011;22890;51.820;8.682;2023-05-29T14:50:03;11.70;;;5.20;;
11024;SDS011;22890;51.820;8.682;2023-05-29T14:52:31;14.97;;;8.47;;
11024;SDS011;22890;51.820;8.682;2023-05-29T14:54:58;12.93;;;4.73;;
11024;SDS011;22890;51.820;8.682;2023-05-29T14:57:28;7.77;;;3.40;;
11024;SDS011;22890;51.820;8.682;2023-05-29T14:59:58;13.50;;;7.30;;
11024;SDS011;22890;51.820;8.682;2023-05-29T15:02:26;13.60;;;6.97;;
11024;SDS011;22890;51.820;8.682;2023-05-29T15:04:53;13.83;;;8.17;;
11024;SDS011;22890;51.820;8.682;2023-05-29T15:07:22;9.40;;;4.20;;
11024;SDS011;22890;51.820;8.682;2023-05-29T15:09:49;10.43;;;6.80;;
11024;SDS011;22890;51.820;8.682;2023-05-29T15:12:16;14.97;;;8.73;;
11024;SDS011;22890;51.820;8.682;2023-05-29T15:14:43;10.63;;;7.93;;
11024;SDS011;22890;51.820;8.682;2023-05-29T15:17:11;13.07;;;5.33;;
11024;SDS011;22890;51.820;8.682;2023-05-29T15:19:38;19.87;;;13.60;;
11024;SDS011;22890;51.820;8.682;2023-05-29T15:22:05;8.17;;;6.60;;
11024;SDS011;22890;51.820;8.682;2023-05-29T15:24:32;14.07;;;8.93;;
11024;SDS011;22890;51.820;8.682;2023-05-29T15:26:59;7.77;;;4.67;;